Relevés horaires Chievres (Belgique)


Relevés horaires à Chievres - Lundi 01 Juin 2020
Heure UTC1 Température [°C] Vent [km/h] Hum. [%] Pres.4 [hPa] Visi. [Km] Nébu. [octa] Préc.5 [mm] Cond.
2m. Res. Ros. Dir.2 Vit. Moy. Raf.3
23:00 15.8 15.8 8.2 NNE 3.7 -- 7.4 61 1019.7(0.7/3h) 20 -- -- --
22:00 17.2 17.2 8.3 NE 3.7 -- 7.4 56 1019.5(1.1/3h) 20 -- -- --
21:00 18.0 18.0 8.1 N 5.6 -- 11.1 52 1019.3(0.9/3h) 20 -- -- --
20:00 19.7 19.7 8.9 N 5.6 -- 5.6 50 1018.8(0.4/3h) 20 -- -- --
19:00 23.1 23.1 8.3 NE 5.6 -- 11.1 39 1018.2(-0.4/3h) 20 -- -- --
18:00 25.4 25.4 7.8 NE 7.4 -- 18.5 33 1018.2(-0.7/3h) 20 -- -- --
17:00 25.6 25.6 7.4 NE 7.4 -- 13.0 31 1018.2(-1.0/3h) 20 -- -- --
16:00 26.4 26.4 7.8 ENE 9.3 -- 13.0 31 1018.7(-0.8/3h) 20 -- -- --
15:00 26.4 26.4 7.6 ENE 7.4 -- 18.5 30 1018.8(-0.9/3h) 19 -- -- --
14:00 25.9 25.9 7.2 E 9.3 -- 18.5 30 1019.2(-1.1/3h) 20 -- -- --
13:00 25.8 25.8 9.0 E 9.3 -- 18.5 35 1019.5(-1.1/3h) 20 -- -- --
12:00 24.9 24.9 8.6 E 9.3 -- 24.1 35 1019.8(-0.9/3h) 15 -- -- --
11:00 23.4 23.4 7.5 ENE 13.0 -- 16.7 36 1020.5(-0.7/3h) 20 -- -- --
10:00 22.8 22.8 6.9 ENE 11.1 -- 18.5 36 1020.7(-0.5/3h) 20 -- -- --
09:00 21.6 21.6 6.8 E 11.1 -- 16.7 38 1021(-0.1/3h) 20 -- -- --
08:00 20.0 20.0 7.2 NE 9.3 -- 13.0 43 1021.2(0.2/3h) 20 -- -- --
07:00 17.9 17.9 7.2 ENE 5.6 -- 9.3 50 1021.3(0.2/3h) 20 -- -- --
06:00 15.5 15.5 7.1 NNO 1.9 -- 9.3 57 1021.2(0.1/3h) 20 -- -- --
05:00 11.8 11.8 6.9 NNO 1.9 -- 3.7 72 1021.3(0.0/3h) 20 -- -- --
04:00 10.1 10.1 5.8 NNO 1.9 -- 3.7 75 1021.2(0.0/3h) 20 -- -- --
03:00 10.8 10.8 5.8 NNO 1.9 -- 9.3 71 1021.2(0.0/3h) 20 -- -- --
02:00 11.6 11.6 5.9 NNO 1.9 -- 5.6 68 1021.2(0.1/3h) 20 -- -- --
01:00 12.3 12.3 5.9 E 3.7 -- 9.3 65 1021.2(0.0/3h) 20 -- -- --
00:00 15.0 15.0 5.5 ENE 5.6 -- 14.8 53 1021.2(0.3/3h) 20 -- -- --

1 Coordinated Universal Time. Actuellement il est 04:00 locale et 02:00 UTC.

2 Le vent souffle depuis la direction indiquée vers la direction oposée.

3 Les rafales max. sont disponible 40 min après l'heure du relevé.

4 Pour les stations d'altitude (plus de 600m) le géopotentiel du niveau le plus proche de la pression obligatoire est indiqué.

5 Les stations disposant d'un diffuseur peuvent indiquer "trace". Cela signifie que des précipitations ont touchés le sol mais que la quantité est inférieure à 0.1 mm.

Récapitulatif de la journée
Température [°C] Vent [km/h] Ensoleillement4 [h] Precipitations totale5 [mm] Pression [Hpa]
Min1 Max.2 Moy.3 Max. Min Max.
9.3 26.9 0 24.1 0 h 0 min 0 1018.2 1021.3

1 Température minimale relevée entre 18:00 UTC la veille et 18:00 UTC le jour donné.

2 Température maximale relevée entre 06:00 UTC le jour donné et 06:00 UTC le lendemain.

3 Vent moyen de la journée basé sur les relevés horaires.

4 Ensoleillement en heures relevé entre 06:00 UTC la veille et 06:00 UTC le jour donné.

5 Précipitations totales tombées entre 06:00 UTC la jour donné et 06:00 UTC le lendemain.

Graphiques horaires